Time;durP1;ratioP1;P1;durP2;ratioP2;P2;SDS_P1;SDS_P2;PMS_P1;PMS_P2;Temp;Humidity;BMP_temperature;BMP_pressure;BME280_temperature;BME280_humidity;BME280_pressure;Samples;Min_cycle;Max_cycle;Signal;HPM_P1;HPM_P2
2021/11/12 00:13:27;;;;;;;64.25;17.48;;;1.70;99.90;;;;;;4991139;28;20505;-74
2021/11/12 00:15:56;;;;;;;80.95;19.15;;;1.70;99.90;;;;;;4992169;28;20030;-73
2021/11/12 00:18:25;;;;;;;39.00;17.27;;;1.60;99.90;;;;;;4991885;28;20434;-74
2021/11/12 00:20:51;;;;;;;43.63;17.50;;;1.60;99.90;;;;;;4992376;28;20030;-74
2021/11/12 00:23:18;;;;;;;51.70;19.23;;;1.60;99.90;;;;;;4972634;28;20021;-74
2021/11/12 00:25:45;;;;;;;51.17;18.48;;;1.50;99.90;;;;;;4971504;28;20130;-74
2021/11/12 00:28:12;;;;;;;44.60;18.17;;;1.50;99.90;;;;;;4955082;28;20487;-74
2021/11/12 00:30:58;;;;;;;45.00;17.88;;;1.50;99.90;;;;;;4964397;28;20094;-74
2021/11/12 00:36:40;;;;;;;55.38;19.52;;;1.50;99.90;;;;;;4997963;28;20026;-75
2021/11/12 00:44:19;;;;;;;38.45;18.25;;;1.50;99.90;;;;;;4978866;28;20050;-74
2021/11/12 00:49:14;;;;;;;50.75;18.23;;;1.50;99.90;;;;;;4991675;28;20078;-74
2021/11/12 00:54:07;;;;;;;38.17;18.40;;;1.50;99.90;;;;;;4990841;28;20022;-74
2021/11/12 00:56:34;;;;;;;37.90;16.67;;;1.50;99.90;;;;;;4973794;28;20048;-75
2021/11/12 00:59:04;;;;;;;33.55;16.10;;;1.40;99.90;;;;;;4973744;28;20019;-74
2021/11/12 01:01:33;;;;;;;31.00;16.40;;;1.50;99.90;;;;;;4974168;28;20032;-74
2021/11/12 01:03:59;;;;;;;30.08;16.38;;;1.40;99.90;;;;;;4990517;28;20459;-74
2021/11/12 01:06:26;;;;;;;29.42;15.82;;;1.40;99.90;;;;;;4973972;28;20068;-74
2021/11/12 01:08:52;;;;;;;39.35;17.27;;;1.50;99.90;;;;;;4991318;28;20022;-74
2021/11/12 01:11:19;;;;;;;31.63;16.52;;;1.50;99.90;;;;;;4973463;28;20126;-75
2021/11/12 01:13:47;;;;;;;37.05;16.42;;;1.60;99.90;;;;;;4978339;28;20015;-74
2021/11/12 01:16:15;;;;;;;35.08;15.02;;;1.60;99.90;;;;;;4972629;28;20018;-74
2021/11/12 01:18:41;;;;;;;27.30;15.65;;;1.60;99.90;;;;;;4991215;28;20164;-74
2021/11/12 01:21:11;;;;;;;28.13;15.70;;;1.50;99.90;;;;;;4973496;28;20390;-75
2021/11/12 01:23:38;;;;;;;37.00;16.15;;;1.50;99.90;;;;;;4976542;28;20105;-74
2021/11/12 01:26:05;;;;;;;32.03;16.80;;;1.50;99.90;;;;;;4967433;28;20152;-74
2021/11/12 01:28:32;;;;;;;29.45;16.40;;;1.50;99.90;;;;;;4973268;28;20026;-74
2021/11/12 01:30:58;;;;;;;92.07;16.98;;;1.50;99.90;;;;;;4990943;28;20101;-74
2021/11/12 01:33:24;;;;;;;61.53;17.63;;;1.50;99.90;;;;;;4989711;28;20463;-74
2021/11/12 01:35:50;;;;;;;48.92;17.55;;;1.50;99.90;;;;;;4976881;28;20053;-74
2021/11/12 01:38:16;;;;;;;53.50;18.05;;;1.50;99.90;;;;;;4984849;28;20120;-73
2021/11/12 01:40:42;;;;;;;107.75;19.75;;;1.50;99.90;;;;;;4991038;28;20029;-74
2021/11/12 01:53:52;;;;;;;95.47;17.52;;;1.50;99.90;;;;;;4970248;28;20058;-74
2021/11/12 01:58:54;;;;;;;148.75;17.88;;;1.50;99.90;;;;;;4971279;28;20038;-74
2021/11/12 02:01:22;;;;;;;62.28;16.92;;;1.50;99.90;;;;;;4971393;28;20041;-74
2021/11/12 02:03:49;;;;;;;86.65;16.95;;;1.50;99.90;;;;;;4978344;28;20045;-74
2021/11/12 02:06:21;;;;;;;74.40;17.70;;;1.50;99.90;;;;;;4990563;28;20030;-74
2021/11/12 02:08:47;;;;;;;46.35;17.35;;;1.50;99.90;;;;;;4972874;28;20035;-74
2021/11/12 02:11:14;;;;;;;73.70;18.27;;;1.50;99.90;;;;;;4972950;28;20609;-74
2021/11/12 02:13:41;;;;;;;84.03;18.45;;;1.50;99.90;;;;;;4989461;28;20045;-74
2021/11/12 02:16:10;;;;;;;69.72;17.90;;;1.50;99.90;;;;;;4972834;28;20410;-74
2021/11/12 02:18:41;;;;;;;33.10;17.92;;;1.50;99.90;;;;;;4973193;28;20027;-74
2021/11/12 02:21:33;;;;;;;72.03;17.40;;;1.50;99.90;;;;;;4973107;28;20023;-74
2021/11/12 02:24:04;;;;;;;126.33;18.37;;;1.50;99.90;;;;;;4989604;28;20517;-74
2021/11/12 02:26:34;;;;;;;84.03;18.30;;;1.50;99.90;;;;;;4972873;28;20258;-74
2021/11/12 02:29:00;;;;;;;67.85;18.10;;;1.40;99.90;;;;;;4990424;28;20033;-74
2021/11/12 02:31:28;;;;;;;81.45;17.60;;;1.40;99.90;;;;;;4972718;28;20034;-74
2021/11/12 02:33:55;;;;;;;120.63;17.92;;;1.40;99.90;;;;;;4971816;28;20036;-74
2021/11/12 02:36:21;;;;;;;67.65;15.88;;;1.30;99.90;;;;;;4987474;28;20093;-73
2021/11/12 02:38:50;;;;;;;77.82;17.33;;;1.30;99.90;;;;;;5001650;28;20029;-73
2021/11/12 02:41:16;;;;;;;56.72;16.88;;;1.20;99.90;;;;;;4974363;28;20030;-72
2021/11/12 02:43:44;;;;;;;56.63;16.02;;;1.20;99.90;;;;;;4988788;28;20034;-73
2021/11/12 02:46:13;;;;;;;42.28;17.13;;;1.20;99.90;;;;;;4984398;28;20062;-73
2021/11/12 02:48:40;;;;;;;63.92;16.80;;;1.20;99.90;;;;;;4987006;28;20093;-72
2021/11/12 02:51:20;;;;;;;45.58;17.08;;;1.30;99.90;;;;;;4972527;28;20502;-73
2021/11/12 02:53:47;;;;;;;36.30;17.52;;;1.30;99.90;;;;;;4956910;28;20057;-73
2021/11/12 02:56:22;;;;;;;63.45;16.35;;;1.30;99.90;;;;;;4989739;28;20018;-72
2021/11/12 02:58:51;;;;;;;47.85;18.20;;;1.30;99.90;;;;;;4972417;28;20057;-73
2021/11/12 03:01:16;;;;;;;35.78;17.83;;;1.30;99.90;;;;;;4989954;28;20042;-73
2021/11/12 03:03:42;;;;;;;55.33;18.02;;;1.30;99.90;;;;;;4974238;28;20394;-73
2021/11/12 03:06:08;;;;;;;45.03;16.10;;;1.40;99.90;;;;;;4993495;28;20100;-73
2021/11/12 03:08:34;;;;;;;45.58;15.57;;;1.30;99.90;;;;;;4993387;28;20039;-73
2021/11/12 03:10:59;;;;;;;44.83;17.00;;;1.20;99.90;;;;;;4992936;28;20113;-73
2021/11/12 03:13:26;;;;;;;50.53;17.52;;;1.20;99.90;;;;;;4991907;28;20022;-73
2021/11/12 03:15:52;;;;;;;53.25;17.17;;;1.20;99.90;;;;;;4993240;28;20049;-72
2021/11/12 03:18:18;;;;;;;46.40;16.42;;;1.20;99.90;;;;;;4975660;28;20496;-73
2021/11/12 03:20:45;;;;;;;52.55;17.00;;;1.10;99.90;;;;;;4993113;28;20080;-73
2021/11/12 03:23:19;;;;;;;41.92;17.23;;;1.10;99.90;;;;;;4992017;28;20438;-73
2021/11/12 04:01:32;;;;;;;36.10;17.20;;;1.00;99.90;;;;;;4991360;28;20084;-72
2021/11/12 05:12:17;;;;;;;48.15;17.15;;;0.70;99.90;;;;;;4987617;28;20057;-69
2021/11/12 05:25:56;;;;;;;46.95;18.65;;;0.50;99.90;;;;;;4981884;28;20037;-70
2021/11/12 05:50:34;;;;;;;40.40;18.23;;;0.50;99.90;;;;;;4990360;28;20120;-70
2021/11/12 05:55:42;;;;;;;38.50;17.75;;;0.50;99.90;;;;;;4990576;28;20530;-70
2021/11/12 05:58:08;;;;;;;38.58;17.58;;;0.50;99.90;;;;;;4990226;28;20106;-70
2021/11/12 06:00:34;;;;;;;34.00;17.60;;;0.50;99.90;;;;;;4990792;28;20043;-70
2021/11/12 06:03:00;;;;;;;40.60;17.67;;;0.50;99.90;;;;;;4989980;28;20081;-70
2021/11/12 06:05:25;;;;;;;31.83;17.33;;;0.50;99.90;;;;;;4990542;28;20109;-70
2021/11/12 06:07:52;;;;;;;37.22;16.98;;;0.40;99.90;;;;;;4990226;28;20027;-69
2021/11/12 06:10:18;;;;;;;33.88;16.70;;;0.40;99.90;;;;;;4989969;28;20023;-70
2021/11/12 06:12:44;;;;;;;36.30;17.08;;;0.30;99.90;;;;;;4989885;28;20038;-70
2021/11/12 06:15:10;;;;;;;34.97;17.35;;;0.30;99.90;;;;;;4972882;28;20026;-70
2021/11/12 06:17:36;;;;;;;36.38;17.48;;;0.30;99.90;;;;;;4990735;28;20038;-69
2021/11/12 06:20:02;;;;;;;41.45;16.75;;;0.30;99.90;;;;;;4990693;28;20023;-69
2021/11/12 06:22:27;;;;;;;40.83;17.88;;;0.20;99.90;;;;;;4989617;28;20096;-69
2021/11/12 06:24:53;;;;;;;32.40;17.60;;;0.20;99.90;;;;;;4985483;28;20019;-69
2021/11/12 06:27:19;;;;;;;45.33;17.63;;;0.10;99.90;;;;;;4993666;28;20033;-69
2021/11/12 06:29:44;;;;;;;36.65;18.63;;;0.10;99.90;;;;;;5009034;28;20054;-69
2021/11/12 06:32:10;;;;;;;36.20;17.30;;;0.00;99.90;;;;;;4990333;28;20034;-69
2021/11/12 06:34:36;;;;;;;36.30;19.77;;;0.00;99.90;;;;;;4972255;28;20061;-69
2021/11/12 06:37:02;;;;;;;45.55;17.92;;;0.00;99.90;;;;;;4990540;28;20030;-69
2021/11/12 06:39:28;;;;;;;38.88;18.50;;;0.10;99.90;;;;;;4993864;28;20023;-68
2021/11/12 06:41:56;;;;;;;36.03;18.08;;;0.10;99.90;;;;;;4993657;28;20332;-69
2021/11/12 06:44:42;;;;;;;57.17;18.92;;;0.10;99.90;;;;;;4993434;28;20030;-69
2021/11/12 06:52:23;;;;;;;75.18;17.75;;;0.10;99.90;;;;;;4993866;28;20023;-68
2021/11/12 06:54:50;;;;;;;67.80;18.05;;;0.10;99.90;;;;;;4993445;28;20375;-68
2021/11/12 06:57:17;;;;;;;47.72;17.60;;;0.10;99.90;;;;;;4994037;28;20022;-68
2021/11/12 06:59:44;;;;;;;55.50;18.08;;;0.10;99.90;;;;;;4975880;28;20043;-68
2021/11/12 07:02:11;;;;;;;43.33;18.50;;;0.10;99.90;;;;;;4993319;28;20053;-69
2021/11/12 07:04:37;;;;;;;47.58;18.27;;;0.10;99.90;;;;;;4992633;28;20045;-68
2021/11/12 07:07:05;;;;;;;37.72;18.42;;;0.10;99.90;;;;;;4987325;28;20030;-69
2021/11/12 07:09:31;;;;;;;37.95;18.20;;;0.20;99.90;;;;;;4974481;28;20027;-68
2021/11/12 07:11:57;;;;;;;36.90;18.52;;;0.20;99.90;;;;;;4984907;28;20033;-68
2021/11/12 07:14:23;;;;;;;42.65;17.30;;;0.20;99.90;;;;;;4993625;28;20026;-68
2021/11/12 07:16:48;;;;;;;32.25;18.70;;;0.30;99.90;;;;;;4993695;28;20491;-68
2021/11/12 07:19:14;;;;;;;32.05;17.52;;;0.40;99.90;;;;;;4993844;28;20022;-68
2021/11/12 07:21:39;;;;;;;31.38;17.65;;;0.40;99.90;;;;;;4993641;28;20025;-68
2021/11/12 07:24:05;;;;;;;33.72;17.98;;;0.40;99.90;;;;;;4992922;28;20026;-68
2021/11/12 07:26:32;;;;;;;31.40;18.02;;;0.40;99.90;;;;;;4982226;28;20026;-68
2021/11/12 07:28:58;;;;;;;30.63;17.60;;;0.50;99.90;;;;;;5013277;28;20018;-68
2021/11/12 07:31:24;;;;;;;30.40;17.10;;;0.50;99.90;;;;;;4998053;28;20077;-68
2021/11/12 07:33:50;;;;;;;26.98;17.60;;;0.50;99.90;;;;;;4993154;28;20025;-68
2021/11/12 07:49:00;;;;;;;33.25;17.48;;;0.70;99.90;;;;;;4992780;28;20050;-68
2021/11/12 07:51:27;;;;;;;34.25;18.10;;;0.80;99.90;;;;;;4964607;28;20387;-68
2021/11/12 07:53:52;;;;;;;27.63;16.83;;;0.80;99.90;;;;;;4989803;28;20022;-69
2021/11/12 07:56:18;;;;;;;31.35;17.27;;;0.90;99.90;;;;;;4992532;28;20092;-69
2021/11/12 07:58:45;;;;;;;30.88;17.42;;;1.00;99.90;;;;;;4990239;28;20030;-68
2021/11/12 08:01:11;;;;;;;29.05;17.48;;;1.00;99.90;;;;;;4990727;28;20458;-69
2021/11/12 08:03:36;;;;;;;29.15;17.27;;;1.00;99.90;;;;;;4983473;28;20031;-67
2021/11/12 08:06:05;;;;;;;33.20;18.13;;;1.10;99.90;;;;;;4978144;28;20030;-67
2021/11/12 08:08:34;;;;;;;32.92;17.08;;;1.10;99.90;;;;;;4991642;28;20033;-68
2021/11/12 08:11:14;;;;;;;27.98;17.05;;;1.20;99.90;;;;;;4968436;28;20034;-68
2021/11/12 08:13:51;;;;;;;26.27;16.00;;;1.30;99.90;;;;;;4977455;28;20049;-68
2021/11/12 08:16:34;;;;;;;26.73;16.27;;;1.40;99.90;;;;;;4986316;28;20015;-68
2021/11/12 08:19:04;;;;;;;26.33;15.23;;;1.50;99.90;;;;;;4992693;28;20033;-68
2021/11/12 08:21:39;;;;;;;27.20;16.08;;;1.60;99.90;;;;;;4992948;28;20565;-68
2021/11/12 08:26:46;;;;;;;26.17;15.63;;;1.80;99.90;;;;;;4992480;28;20390;-68
2021/11/12 08:35:01;;;;;;;19.85;14.65;;;2.00;99.90;;;;;;4991922;28;20374;-68
2021/11/12 08:37:37;;;;;;;24.92;14.70;;;2.00;99.90;;;;;;4981035;28;20046;-68
2021/11/12 08:42:48;;;;;;;23.80;14.35;;;2.10;99.90;;;;;;4991656;28;20038;-68
2021/11/12 08:45:24;;;;;;;25.20;15.02;;;2.10;99.90;;;;;;4992143;28;20041;-69
2021/11/12 08:47:54;;;;;;;28.30;14.13;;;2.10;99.90;;;;;;4991691;28;20022;-68
2021/11/12 08:50:22;;;;;;;22.33;13.95;;;2.20;99.90;;;;;;4985153;28;20479;-68
2021/11/12 08:52:51;;;;;;;20.38;14.07;;;2.20;99.90;;;;;;4983627;28;20029;-68
2021/11/12 08:55:24;;;;;;;22.60;13.93;;;2.30;99.90;;;;;;4991746;28;20462;-68
2021/11/12 08:57:50;;;;;;;22.75;14.68;;;2.30;99.90;;;;;;4992020;28;20057;-68
2021/11/12 09:00:15;;;;;;;20.73;14.05;;;2.30;99.90;;;;;;4959294;28;20031;-68
2021/11/12 09:02:41;;;;;;;24.33;14.50;;;2.30;99.90;;;;;;4983745;28;20037;-68
2021/11/12 09:05:07;;;;;;;21.75;14.15;;;2.20;99.90;;;;;;4991464;28;20030;-68
2021/11/12 09:07:33;;;;;;;24.92;14.50;;;2.20;99.90;;;;;;4982869;28;20079;-68
2021/11/12 09:09:58;;;;;;;25.70;15.27;;;2.20;99.90;;;;;;4984832;28;20479;-69
2021/11/12 09:12:26;;;;;;;26.45;16.52;;;2.20;99.90;;;;;;4972400;28;20192;-68
2021/11/12 09:14:55;;;;;;;27.05;15.00;;;2.20;99.90;;;;;;4982585;28;20026;-68
2021/11/12 09:17:22;;;;;;;28.25;16.25;;;2.20;99.90;;;;;;4980917;28;20057;-68
2021/11/12 09:19:52;;;;;;;27.38;14.60;;;2.20;99.90;;;;;;4976212;28;20452;-68
2021/11/12 09:22:31;;;;;;;32.60;16.75;;;2.20;99.90;;;;;;4984347;28;20344;-68
2021/11/12 09:24:57;;;;;;;26.45;16.13;;;2.20;99.90;;;;;;4987654;28;20565;-68
2021/11/12 09:27:23;;;;;;;35.47;17.25;;;2.20;99.90;;;;;;4990766;28;20708;-68
2021/11/12 09:29:49;;;;;;;24.02;15.82;;;2.30;99.90;;;;;;4991270;28;20053;-68
2021/11/12 09:32:15;;;;;;;32.35;17.17;;;2.30;99.90;;;;;;4990923;28;20030;-68
2021/11/12 09:34:42;;;;;;;28.08;16.95;;;2.30;99.90;;;;;;4990863;28;20403;-68
2021/11/12 09:37:09;;;;;;;31.25;16.75;;;2.40;99.90;;;;;;4986189;28;20023;-68
2021/11/12 09:39:38;;;;;;;29.73;16.60;;;2.40;99.90;;;;;;4988135;28;20039;-68
2021/11/12 09:42:05;;;;;;;30.83;18.08;;;2.50;99.90;;;;;;4967431;28;20368;-68
2021/11/12 09:44:31;;;;;;;31.58;18.08;;;2.50;99.90;;;;;;4987155;28;20038;-68
2021/11/12 09:46:58;;;;;;;29.95;17.00;;;2.60;99.90;;;;;;4991280;28;20208;-68
2021/11/12 09:49:23;;;;;;;31.80;17.90;;;2.60;99.90;;;;;;4990955;28;20023;-68
2021/11/12 09:51:49;;;;;;;34.17;17.60;;;2.60;99.90;;;;;;4991197;28;20037;-68
2021/11/12 09:54:15;;;;;;;29.70;18.15;;;2.60;99.90;;;;;;4989959;28;20344;-68
2021/11/12 09:56:41;;;;;;;31.33;17.90;;;2.70;99.90;;;;;;4982383;28;20030;-68
2021/11/12 09:59:07;;;;;;;30.60;17.73;;;2.80;99.90;;;;;;5005487;28;20026;-69
2021/11/12 10:01:36;;;;;;;29.70;17.92;;;2.80;99.90;;;;;;4995939;28;20109;-68
2021/11/12 10:04:09;;;;;;;33.35;19.13;;;2.90;99.90;;;;;;4989619;28;20398;-68
2021/11/12 10:06:36;;;;;;;34.75;19.42;;;2.80;99.90;;;;;;4990797;28;20030;-68
2021/11/12 10:09:03;;;;;;;34.97;18.50;;;2.90;99.90;;;;;;4990404;28;20102;-68
2021/11/12 10:11:33;;;;;;;33.13;19.27;;;2.90;99.90;;;;;;5027224;23;20050;-85
2021/11/12 10:14:00;;;;;;;32.90;18.48;;;2.90;99.90;;;;;;4976975;28;20029;-84
2021/11/12 10:16:40;;;;;;;29.88;19.15;;;2.90;99.90;;;;;;4977362;28;20026;-85
2021/11/12 10:19:18;;;;;;;33.67;18.45;;;3.00;99.90;;;;;;4963559;28;20054;-84
2021/11/12 10:21:50;;;;;;;32.53;18.30;;;3.00;99.90;;;;;;4960167;28;20509;-85
2021/11/12 10:24:31;;;;;;;37.25;19.25;;;3.00;99.90;;;;;;4957750;28;20031;-85
2021/11/12 10:27:12;;;;;;;32.38;19.38;;;3.10;99.90;;;;;;4959029;28;20395;-85
2021/11/12 10:29:48;;;;;;;29.45;18.35;;;3.10;99.90;;;;;;4959454;28;20023;-85
2021/11/12 10:32:18;;;;;;;31.80;18.98;;;3.20;99.90;;;;;;4958649;28;20023;-85
2021/11/12 10:34:47;;;;;;;35.58;19.30;;;3.30;99.90;;;;;;4957078;28;20031;-85
2021/11/12 10:37:16;;;;;;;34.47;19.27;;;3.30;99.90;;;;;;4976124;28;20023;-85
2021/11/12 10:39:45;;;;;;;35.25;19.48;;;3.30;99.90;;;;;;4958731;28;20368;-85
2021/11/12 10:42:14;;;;;;;32.10;18.83;;;3.40;99.90;;;;;;4974365;28;20054;-84
2021/11/12 10:44:46;;;;;;;36.78;19.52;;;3.40;99.90;;;;;;4982767;28;20023;-84
2021/11/12 10:47:14;;;;;;;36.30;20.92;;;3.40;99.90;;;;;;4968381;28;20049;-85
2021/11/12 10:49:44;;;;;;;35.97;20.20;;;3.50;99.90;;;;;;4976724;28;20035;-84
2021/11/12 10:52:17;;;;;;;35.08;19.98;;;3.50;99.90;;;;;;4971745;28;20019;-85
2021/11/12 10:54:59;;;;;;;38.67;20.42;;;3.50;99.90;;;;;;4968936;28;20483;-85
2021/11/12 10:57:52;;;;;;;42.37;21.10;;;3.50;99.90;;;;;;4966719;28;20030;-84
2021/11/12 11:00:26;;;;;;;33.28;19.60;;;3.60;99.90;;;;;;4956693;28;20039;-84
2021/11/12 11:02:57;;;;;;;38.88;21.10;;;3.60;99.90;;;;;;4966948;28;20451;-85
2021/11/12 11:05:40;;;;;;;41.20;22.50;;;3.60;99.90;;;;;;4975669;28;20075;-85
2021/11/12 11:08:07;;;;;;;38.50;21.55;;;3.70;99.90;;;;;;4957380;28;20038;-85
2021/11/12 11:10:40;;;;;;;45.50;21.63;;;3.70;99.90;;;;;;4961013;28;20035;-85
2021/11/12 11:13:18;;;;;;;38.10;21.77;;;3.70;99.90;;;;;;4973042;28;20078;-84
2021/11/12 11:15:49;;;;;;;36.92;21.73;;;3.80;99.90;;;;;;4957270;28;20027;-86
2021/11/12 11:18:18;;;;;;;41.63;22.47;;;3.80;99.90;;;;;;4957337;28;20074;-86
2021/11/12 11:20:50;;;;;;;39.15;22.15;;;3.80;99.90;;;;;;4955853;28;20038;-85
2021/11/12 11:23:17;;;;;;;39.73;22.07;;;3.90;99.90;;;;;;4954685;28;20494;-85
2021/11/12 11:25:58;;;;;;;44.17;22.50;;;3.80;99.90;;;;;;4973263;28;20277;-85
2021/11/12 11:28:24;;;;;;;41.38;22.23;;;3.90;99.90;;;;;;4953678;28;20027;-85
2021/11/12 11:30:50;;;;;;;45.35;22.58;;;3.90;99.90;;;;;;4945958;28;20026;-85
2021/11/12 11:33:17;;;;;;;40.08;22.75;;;4.00;99.90;;;;;;4956456;28;20066;-85
2021/11/12 11:35:45;;;;;;;40.38;22.02;;;4.00;99.90;;;;;;4971541;28;20675;-85
2021/11/12 11:38:15;;;;;;;44.92;23.90;;;4.00;99.90;;;;;;4968426;28;20117;-85
2021/11/12 11:40:48;;;;;;;40.97;23.73;;;4.10;99.90;;;;;;4974765;28;20510;-85
2021/11/12 11:43:14;;;;;;;42.45;23.25;;;4.10;99.90;;;;;;4986240;28;20038;-86
2021/11/12 11:45:42;;;;;;;41.83;22.98;;;4.20;99.90;;;;;;4974974;28;20027;-85
2021/11/12 11:48:09;;;;;;;43.38;23.52;;;4.30;99.90;;;;;;4956559;28;20085;-85
2021/11/12 11:50:34;;;;;;;42.50;22.80;;;4.30;99.90;;;;;;4957087;28;20023;-85
2021/11/12 11:53:23;;;;;;;43.03;24.17;;;4.30;99.90;;;;;;4972751;28;20030;-85
2021/11/12 11:55:49;;;;;;;43.85;24.23;;;4.40;99.90;;;;;;4956490;28;20499;-84
2021/11/12 11:58:32;;;;;;;41.90;24.63;;;4.40;99.90;;;;;;4957039;28;20464;-83
2021/11/12 12:01:16;;;;;;;;;;;4.50;99.90;;;;;;4974832;28;20031;-85
2021/11/12 12:03:43;;;;;;;42.20;22.55;;;4.60;99.90;;;;;;4955361;28;19918;-84
2021/11/12 12:06:11;;;;;;;44.38;24.83;;;4.60;99.90;;;;;;4955496;28;20034;-85
2021/11/12 12:09:09;;;;;;;43.22;24.00;;;4.60;99.90;;;;;;4956040;28;20073;-85
2021/11/12 12:11:55;;;;;;;44.78;24.05;;;4.70;99.90;;;;;;4954747;28;20034;-85
2021/11/12 12:14:29;;;;;;;49.58;24.05;;;4.80;99.90;;;;;;4952906;28;20035;-85
2021/11/12 12:17:02;;;;;;;42.83;23.35;;;4.80;99.90;;;;;;4951168;28;20115;-85
2021/11/12 12:20:00;;;;;;;43.15;23.55;;;4.90;99.90;;;;;;4955992;28;20110;-84
2021/11/12 13:20:24;;;;;;;;;;;5.50;99.90;;;;;;5085568;28;20541;-71
2021/11/12 13:23:34;;;;;;;47.63;25.83;;;5.50;99.90;;;;;;5084927;28;19934;-70
2021/11/12 13:25:46;;;;;;;50.67;27.33;;;5.50;99.90;;;;;;5064894;28;20070;-71
2021/11/12 13:28:32;;;;;;;49.45;27.48;;;5.60;99.90;;;;;;5065571;28;20406;-71
2021/11/12 13:31:22;;;;;;;47.90;26.98;;;5.60;99.90;;;;;;5081198;28;20028;-71
2021/11/12 13:33:56;;;;;;;51.50;28.00;;;5.60;99.90;;;;;;5079463;28;20024;-71
2021/11/12 13:36:24;;;;;;;48.45;26.95;;;5.60;99.90;;;;;;5065173;28;20655;-71
2021/11/12 13:38:57;;;;;;;48.50;28.38;;;5.60;99.90;;;;;;5080075;28;20060;-71
2021/11/12 13:41:24;;;;;;;;;;;5.70;99.90;;;;;;5083895;28;20029;-71
2021/11/12 13:43:57;;;;;;;48.67;27.00;;;5.70;99.90;;;;;;5099515;28;19951;-71
2021/11/12 13:46:23;;;;;;;48.17;26.70;;;5.70;99.90;;;;;;5085200;28;20033;-71
2021/11/12 13:48:52;;;;;;;52.97;28.17;;;5.70;99.90;;;;;;5079446;28;20471;-71
2021/11/12 13:51:28;;;;;;;49.90;27.80;;;5.80;99.90;;;;;;5066369;28;20664;-71
2021/11/12 13:53:54;;;;;;;50.80;27.48;;;5.80;99.90;;;;;;5068817;28;20029;-71
2021/11/12 13:56:20;;;;;;;43.35;25.00;;;5.80;99.90;;;;;;5079327;28;20032;-71
2021/11/12 13:58:46;;;;;;;47.72;26.17;;;5.80;99.90;;;;;;5086660;28;20020;-71
2021/11/12 14:01:20;;;;;;;47.58;26.50;;;5.80;99.90;;;;;;5102484;28;20028;-71
2021/11/12 14:03:47;;;;;;;49.05;26.70;;;5.90;99.90;;;;;;5086026;28;20049;-72
2021/11/12 14:06:13;;;;;;;48.95;27.60;;;5.90;99.90;;;;;;5063972;28;20056;-71
2021/11/12 14:08:42;;;;;;;52.15;28.20;;;5.90;99.90;;;;;;5052093;28;20492;-72
2021/11/12 14:11:22;;;;;;;47.17;26.77;;;5.90;99.90;;;;;;5070155;28;20047;-72
2021/11/12 14:13:49;;;;;;;49.50;26.85;;;5.90;99.90;;;;;;5064801;28;20028;-72
2021/11/12 14:16:22;;;;;;;49.00;27.17;;;5.80;99.90;;;;;;5073017;28;20036;-71
2021/11/12 14:21:44;;;;;;;51.13;28.10;;;5.80;99.90;;;;;;5073264;28;20073;-71
2021/11/12 14:40:16;;;;;;;50.53;26.58;;;6.00;99.90;;;;;;5072876;28;20027;-72
2021/11/12 14:45:41;;;;;;;47.38;24.98;;;6.00;99.90;;;;;;5087255;28;20184;-72
2021/11/12 14:48:30;;;;;;;48.45;26.42;;;6.00;99.90;;;;;;5091743;28;20094;-72
2021/11/12 14:51:11;;;;;;;47.22;26.08;;;6.00;99.90;;;;;;5075116;28;20021;-72
2021/11/12 14:56:32;;;;;;;50.97;25.38;;;6.10;99.90;;;;;;5085059;28;20063;-71
2021/11/12 14:59:04;;;;;;;48.72;26.40;;;6.10;99.90;;;;;;5060337;28;20017;-71
2021/11/12 15:01:32;;;;;;;54.60;27.90;;;6.10;99.90;;;;;;5069613;28;20162;-71
2021/11/12 15:03:58;;;;;;;52.08;27.35;;;6.00;99.90;;;;;;5070875;28;20103;-72
2021/11/12 15:06:26;;;;;;;51.15;27.88;;;6.10;99.90;;;;;;5070790;28;20488;-72
2021/11/12 15:08:56;;;;;;;53.70;28.42;;;6.10;99.90;;;;;;5072496;28;20036;-72
2021/11/12 15:11:25;;;;;;;53.63;28.83;;;6.00;99.90;;;;;;5074377;28;20508;-71
2021/11/12 15:13:53;;;;;;;51.22;27.02;;;6.00;99.90;;;;;;5071032;28;20035;-72
2021/11/12 15:16:24;;;;;;;55.80;27.50;;;6.00;99.90;;;;;;5071394;28;20028;-71
2021/11/12 15:18:53;;;;;;;51.55;27.23;;;6.00;99.90;;;;;;5086755;28;20107;-72
2021/11/12 15:21:31;;;;;;;47.25;26.60;;;6.00;99.90;;;;;;5059424;28;20111;-72
2021/11/12 15:26:44;;;;;;;48.78;26.13;;;6.00;99.90;;;;;;5051837;28;20028;-72
2021/11/12 15:34:07;;;;;;;61.22;30.55;;;6.00;99.90;;;;;;5050749;28;20028;-72
2021/11/12 15:36:34;;;;;;;71.22;36.38;;;6.00;99.90;;;;;;5070413;28;20024;-72
2021/11/12 15:39:15;;;;;;;53.88;27.55;;;6.00;99.90;;;;;;5066906;28;20032;-72
2021/11/12 15:44:15;;;;;;;61.55;29.25;;;6.00;99.90;;;;;;5070487;28;20453;-72
2021/11/12 15:46:49;;;;;;;57.60;27.80;;;6.00;99.90;;;;;;5071378;28;20025;-71
2021/11/12 15:49:20;;;;;;;60.13;28.20;;;5.90;99.90;;;;;;5071191;28;20055;-71
2021/11/12 15:51:52;;;;;;;56.17;27.40;;;5.90;99.90;;;;;;5084895;28;20107;-71
2021/11/12 15:54:32;;;;;;;51.92;27.20;;;5.90;99.90;;;;;;5048978;28;20029;-71
2021/11/12 16:11:17;;;;;;;59.20;28.45;;;5.70;99.90;;;;;;5066102;28;20021;-71
2021/11/12 16:13:34;;;;;;;54.58;28.38;;;5.70;99.90;;;;;;5061272;28;20492;-71
2021/11/12 16:26:40;;;;;;;53.75;27.08;;;5.60;99.90;;;;;;5054929;28;20400;-72
2021/11/12 16:31:38;;;;;;;59.03;28.35;;;5.60;99.90;;;;;;5070843;28;20024;-72
2021/11/12 16:34:16;;;;;;;54.67;27.83;;;5.60;99.90;;;;;;5076733;28;20025;-71
2021/11/12 16:37:02;;;;;;;54.45;28.45;;;5.60;99.90;;;;;;5087533;28;20032;-72
2021/11/12 16:39:31;;;;;;;59.33;28.25;;;5.50;99.90;;;;;;5070485;28;20384;-72
2021/11/12 16:50:05;;;;;;;68.28;29.25;;;5.50;99.90;;;;;;5068573;28;20507;-72
2021/11/12 16:55:27;;;;;;;74.25;31.83;;;5.50;99.90;;;;;;5050273;28;20043;-70
2021/11/12 16:58:02;;;;;;;64.93;30.63;;;5.50;99.90;;;;;;5050782;28;20530;-72
2021/11/12 17:10:59;;;;;;;69.97;32.55;;;5.50;99.90;;;;;;5069697;28;20507;-68
2021/11/12 17:16:16;;;;;;;78.90;32.90;;;5.40;99.90;;;;;;5078409;28;20028;-69
2021/11/12 17:44:48;;;;;;;75.25;32.10;;;5.40;99.90;;;;;;5089286;28;20043;-68
2021/11/12 17:49:15;;;;;;;72.20;29.70;;;5.30;99.90;;;;;;5087443;28;20031;-69
2021/11/12 18:08:38;;;;;;;90.93;33.08;;;5.30;99.90;;;;;;5089294;28;20452;-68
2021/11/12 18:20:16;;;;;;;86.65;29.40;;;5.30;99.90;;;;;;5090321;28;20106;-68
2021/11/12 21:46:37;;;;;;;106.70;32.53;;;4.60;99.90;;;;;;5074367;28;20028;-68
2021/11/12 21:49:02;;;;;;;127.10;34.35;;;4.60;99.90;;;;;;5094120;28;20056;-69
2021/11/12 21:51:33;;;;;;;108.82;29.52;;;4.60;99.90;;;;;;5094034;28;20399;-69
2021/11/12 21:54:01;;;;;;;95.00;32.95;;;4.60;99.90;;;;;;5092216;28;20035;-69
2021/11/12 21:56:28;;;;;;;109.88;34.38;;;4.60;99.90;;;;;;5093037;28;20026;-70
2021/11/12 21:58:54;;;;;;;96.45;32.50;;;4.60;99.90;;;;;;5093824;28;20464;-68
2021/11/12 22:01:21;;;;;;;142.02;36.05;;;4.60;99.90;;;;;;5093415;28;20476;-69
2021/11/12 22:03:47;;;;;;;136.95;35.22;;;4.60;99.90;;;;;;5092581;28;20044;-69
2021/11/12 22:06:13;;;;;;;232.07;36.28;;;4.60;99.90;;;;;;5093375;28;20043;-69
2021/11/12 22:08:39;;;;;;;103.35;32.63;;;4.60;99.90;;;;;;5093355;28;20035;-69
2021/11/12 22:11:06;;;;;;;126.82;31.98;;;4.60;99.90;;;;;;5075121;28;20053;-69
2021/11/12 22:13:33;;;;;;;141.73;30.75;;;4.60;99.90;;;;;;5092440;28;20046;-69
2021/11/12 22:16:00;;;;;;;131.57;30.55;;;4.60;99.90;;;;;;5073785;28;20074;-69
2021/11/12 22:18:27;;;;;;;102.18;30.02;;;4.60;99.90;;;;;;5092910;28;20020;-68
2021/11/12 22:20:53;;;;;;;81.93;29.83;;;4.60;99.90;;;;;;5087405;28;20100;-69
2021/11/12 22:23:19;;;;;;;94.75;30.90;;;4.60;99.90;;;;;;5071483;28;20030;-69
2021/11/12 22:25:46;;;;;;;97.80;30.65;;;4.60;99.90;;;;;;5072888;28;20028;-69
2021/11/12 22:28:12;;;;;;;125.72;31.77;;;4.60;99.90;;;;;;5092168;28;20055;-68
2021/11/12 22:30:38;;;;;;;119.90;32.58;;;4.60;99.90;;;;;;5092483;28;20066;-69
2021/11/12 22:33:06;;;;;;;128.23;33.35;;;4.60;99.90;;;;;;5091482;28;20486;-69
2021/11/12 22:35:33;;;;;;;116.28;32.20;;;4.60;99.90;;;;;;5092507;28;20031;-69
2021/11/12 22:37:59;;;;;;;111.15;32.15;;;4.60;99.90;;;;;;5092190;28;20024;-69
2021/11/12 22:40:25;;;;;;;169.55;34.55;;;4.60;99.90;;;;;;5074150;28;20080;-69
2021/11/12 22:42:51;;;;;;;120.72;33.03;;;4.60;99.90;;;;;;5091347;28;20027;-69
2021/11/12 22:45:17;;;;;;;101.05;33.67;;;4.50;99.90;;;;;;5091919;28;20062;-69
2021/11/12 22:47:47;;;;;;;88.75;31.90;;;4.50;99.90;;;;;;5092328;28;20048;-69
2021/11/12 22:50:13;;;;;;;107.25;32.05;;;4.50;99.90;;;;;;5092726;28;20036;-68
2021/11/12 22:52:40;;;;;;;93.88;29.58;;;4.60;99.90;;;;;;5091324;28;20047;-69
2021/11/12 22:55:06;;;;;;;88.45;30.73;;;4.50;99.90;;;;;;5092176;28;20043;-68
2021/11/12 22:57:32;;;;;;;98.93;32.15;;;4.50;99.90;;;;;;5092881;28;20106;-69
2021/11/12 22:59:58;;;;;;;98.57;32.70;;;4.50;99.90;;;;;;5072518;28;20121;-69